sensor_id;sensor_type;location;lat;lon;timestamp;P1;durP1;ratioP1;P2;durP2;ratioP2
22665;SDS011;11499;49.486;11.104;2023-02-24T00:02:22;20.13;;;13.93;;
22665;SDS011;11499;49.486;11.104;2023-02-24T00:04:48;16.23;;;13.87;;
22665;SDS011;11499;49.486;11.104;2023-02-24T00:07:16;16.77;;;13.77;;
22665;SDS011;11499;49.486;11.104;2023-02-24T00:09:42;17.53;;;13.57;;
22665;SDS011;11499;49.486;11.104;2023-02-24T00:12:13;15.43;;;13.53;;
22665;SDS011;11499;49.486;11.104;2023-02-24T00:14:43;16.77;;;13.87;;
22665;SDS011;11499;49.486;11.104;2023-02-24T00:17:10;16.83;;;14.17;;
22665;SDS011;11499;49.486;11.104;2023-02-24T00:19:38;17.13;;;14.03;;
22665;SDS011;11499;49.486;11.104;2023-02-24T00:22:04;17.50;;;14.40;;
22665;SDS011;11499;49.486;11.104;2023-02-24T00:26:32;20.50;;;14.53;;
22665;SDS011;11499;49.486;11.104;2023-02-24T00:28:58;17.83;;;14.23;;
22665;SDS011;11499;49.486;11.104;2023-02-24T00:31:27;16.40;;;14.40;;
22665;SDS011;11499;49.486;11.104;2023-02-24T00:33:55;20.67;;;15.93;;
22665;SDS011;11499;49.486;11.104;2023-02-24T00:36:22;19.93;;;14.73;;
22665;SDS011;11499;49.486;11.104;2023-02-24T00:38:55;19.27;;;15.53;;
22665;SDS011;11499;49.486;11.104;2023-02-24T00:41:26;19.90;;;15.60;;
22665;SDS011;11499;49.486;11.104;2023-02-24T00:43:54;19.73;;;15.83;;
22665;SDS011;11499;49.486;11.104;2023-02-24T00:46:36;19.93;;;15.50;;
22665;SDS011;11499;49.486;11.104;2023-02-24T00:49:08;18.93;;;16.13;;
22665;SDS011;11499;49.486;11.104;2023-02-24T00:55:32;19.40;;;16.37;;
22665;SDS011;11499;49.486;11.104;2023-02-24T00:58:00;18.70;;;15.50;;
22665;SDS011;11499;49.486;11.104;2023-02-24T01:00:28;20.80;;;15.37;;
22665;SDS011;11499;49.486;11.104;2023-02-24T01:02:54;19.57;;;16.40;;
22665;SDS011;11499;49.486;11.104;2023-02-24T01:05:23;18.87;;;15.83;;
22665;SDS011;11499;49.486;11.104;2023-02-24T01:07:51;21.43;;;16.60;;
22665;SDS011;11499;49.486;11.104;2023-02-24T01:10:17;21.23;;;15.83;;
22665;SDS011;11499;49.486;11.104;2023-02-24T01:12:46;22.87;;;16.27;;
22665;SDS011;11499;49.486;11.104;2023-02-24T01:15:15;21.30;;;17.00;;
22665;SDS011;11499;49.486;11.104;2023-02-24T01:17:42;18.30;;;15.70;;
22665;SDS011;11499;49.486;11.104;2023-02-24T01:23:03;21.97;;;17.03;;
22665;SDS011;11499;49.486;11.104;2023-02-24T01:25:29;20.43;;;16.77;;
22665;SDS011;11499;49.486;11.104;2023-02-24T01:27:55;20.00;;;15.70;;
22665;SDS011;11499;49.486;11.104;2023-02-24T01:30:23;21.20;;;16.43;;
22665;SDS011;11499;49.486;11.104;2023-02-24T01:32:49;21.10;;;17.30;;
22665;SDS011;11499;49.486;11.104;2023-02-24T01:35:14;21.70;;;17.00;;
22665;SDS011;11499;49.486;11.104;2023-02-24T01:37:40;20.30;;;16.60;;
22665;SDS011;11499;49.486;11.104;2023-02-24T01:40:08;23.47;;;18.13;;
22665;SDS011;11499;49.486;11.104;2023-02-24T01:42:41;21.23;;;16.33;;
22665;SDS011;11499;49.486;11.104;2023-02-24T01:45:12;20.97;;;17.53;;
22665;SDS011;11499;49.486;11.104;2023-02-24T01:49:17;21.90;;;17.90;;
22665;SDS011;11499;49.486;11.104;2023-02-24T01:52:12;23.70;;;19.07;;
22665;SDS011;11499;49.486;11.104;2023-02-24T01:54:52;25.20;;;19.00;;
22665;SDS011;11499;49.486;11.104;2023-02-24T01:57:22;23.47;;;19.13;;
22665;SDS011;11499;49.486;11.104;2023-02-24T01:59:50;27.10;;;19.33;;
22665;SDS011;11499;49.486;11.104;2023-02-24T02:02:18;24.37;;;19.60;;
22665;SDS011;11499;49.486;11.104;2023-02-24T02:04:53;29.53;;;21.67;;
22665;SDS011;11499;49.486;11.104;2023-02-24T02:07:23;26.13;;;20.37;;
22665;SDS011;11499;49.486;11.104;2023-02-24T02:09:51;24.87;;;19.70;;
22665;SDS011;11499;49.486;11.104;2023-02-24T02:12:18;26.10;;;19.87;;
22665;SDS011;11499;49.486;11.104;2023-02-24T02:17:05;26.23;;;19.30;;
22665;SDS011;11499;49.486;11.104;2023-02-24T02:26:14;25.37;;;18.73;;
22665;SDS011;11499;49.486;11.104;2023-02-24T02:32:01;24.77;;;20.43;;
22665;SDS011;11499;49.486;11.104;2023-02-24T02:39:48;26.00;;;19.97;;
22665;SDS011;11499;49.486;11.104;2023-02-24T02:45:11;28.90;;;20.03;;
22665;SDS011;11499;49.486;11.104;2023-02-24T02:50:32;29.20;;;21.67;;
22665;SDS011;11499;49.486;11.104;2023-02-24T02:53:08;28.47;;;20.57;;
22665;SDS011;11499;49.486;11.104;2023-02-24T02:55:46;28.33;;;20.87;;
22665;SDS011;11499;49.486;11.104;2023-02-24T02:58:18;26.47;;;20.10;;
22665;SDS011;11499;49.486;11.104;2023-02-24T03:00:51;27.63;;;21.10;;
22665;SDS011;11499;49.486;11.104;2023-02-24T03:03:26;29.53;;;21.23;;
22665;SDS011;11499;49.486;11.104;2023-02-24T03:06:04;26.20;;;20.53;;
22665;SDS011;11499;49.486;11.104;2023-02-24T03:08:34;28.33;;;20.50;;
22665;SDS011;11499;49.486;11.104;2023-02-24T03:13:02;24.20;;;19.50;;
22665;SDS011;11499;49.486;11.104;2023-02-24T03:15:33;26.30;;;20.27;;
22665;SDS011;11499;49.486;11.104;2023-02-24T03:18:02;23.30;;;19.00;;
22665;SDS011;11499;49.486;11.104;2023-02-24T03:20:38;24.63;;;19.00;;
22665;SDS011;11499;49.486;11.104;2023-02-24T03:23:22;25.33;;;18.87;;
22665;SDS011;11499;49.486;11.104;2023-02-24T03:29:06;24.10;;;19.07;;
22665;SDS011;11499;49.486;11.104;2023-02-24T03:40:17;27.67;;;20.23;;
22665;SDS011;11499;49.486;11.104;2023-02-24T03:42:49;31.63;;;20.97;;
22665;SDS011;11499;49.486;11.104;2023-02-24T03:45:20;27.50;;;21.07;;
22665;SDS011;11499;49.486;11.104;2023-02-24T03:47:47;27.43;;;20.30;;
22665;SDS011;11499;49.486;11.104;2023-02-24T03:50:18;26.80;;;20.33;;
22665;SDS011;11499;49.486;11.104;2023-02-24T04:01:31;30.17;;;22.63;;
22665;SDS011;11499;49.486;11.104;2023-02-24T04:07:36;30.60;;;22.00;;
22665;SDS011;11499;49.486;11.104;2023-02-24T04:10:24;30.57;;;21.90;;
22665;SDS011;11499;49.486;11.104;2023-02-24T04:12:55;31.60;;;22.47;;
22665;SDS011;11499;49.486;11.104;2023-02-24T04:15:41;29.90;;;21.83;;
22665;SDS011;11499;49.486;11.104;2023-02-24T04:18:18;30.10;;;22.00;;
22665;SDS011;11499;49.486;11.104;2023-02-24T04:20:47;29.27;;;21.07;;
22665;SDS011;11499;49.486;11.104;2023-02-24T04:23:17;27.27;;;20.10;;
22665;SDS011;11499;49.486;11.104;2023-02-24T04:25:51;30.97;;;21.17;;
22665;SDS011;11499;49.486;11.104;2023-02-24T04:28:17;29.63;;;21.33;;
22665;SDS011;11499;49.486;11.104;2023-02-24T04:30:49;27.67;;;20.90;;
22665;SDS011;11499;49.486;11.104;2023-02-24T04:35:17;29.87;;;20.77;;
22665;SDS011;11499;49.486;11.104;2023-02-24T04:37:45;32.50;;;22.50;;
22665;SDS011;11499;49.486;11.104;2023-02-24T04:40:14;32.63;;;22.17;;
22665;SDS011;11499;49.486;11.104;2023-02-24T04:42:41;32.00;;;22.47;;
22665;SDS011;11499;49.486;11.104;2023-02-24T04:45:14;33.13;;;22.87;;
22665;SDS011;11499;49.486;11.104;2023-02-24T04:47:41;30.80;;;22.33;;
22665;SDS011;11499;49.486;11.104;2023-02-24T04:50:10;34.87;;;23.97;;
22665;SDS011;11499;49.486;11.104;2023-02-24T04:52:46;31.90;;;22.40;;
22665;SDS011;11499;49.486;11.104;2023-02-24T04:55:24;29.33;;;21.57;;
22665;SDS011;11499;49.486;11.104;2023-02-24T04:57:53;32.27;;;23.57;;
22665;SDS011;11499;49.486;11.104;2023-02-24T05:02:12;33.13;;;22.97;;
22665;SDS011;11499;49.486;11.104;2023-02-24T05:04:39;31.50;;;22.13;;
22665;SDS011;11499;49.486;11.104;2023-02-24T05:07:05;32.50;;;23.60;;
22665;SDS011;11499;49.486;11.104;2023-02-24T05:09:30;31.63;;;21.90;;
22665;SDS011;11499;49.486;11.104;2023-02-24T05:11:56;36.37;;;24.53;;
22665;SDS011;11499;49.486;11.104;2023-02-24T05:14:22;34.13;;;23.50;;
22665;SDS011;11499;49.486;11.104;2023-02-24T05:16:49;34.37;;;22.63;;
22665;SDS011;11499;49.486;11.104;2023-02-24T05:19:16;33.50;;;23.77;;
22665;SDS011;11499;49.486;11.104;2023-02-24T05:22:01;37.60;;;23.90;;
22665;SDS011;11499;49.486;11.104;2023-02-24T05:24:29;34.07;;;23.43;;
22665;SDS011;11499;49.486;11.104;2023-02-24T05:26:55;37.03;;;23.90;;
22665;SDS011;11499;49.486;11.104;2023-02-24T05:29:23;32.67;;;22.77;;
22665;SDS011;11499;49.486;11.104;2023-02-24T05:34:06;32.97;;;23.93;;
22665;SDS011;11499;49.486;11.104;2023-02-24T05:36:33;32.03;;;22.43;;
22665;SDS011;11499;49.486;11.104;2023-02-24T05:39:00;33.17;;;22.87;;
22665;SDS011;11499;49.486;11.104;2023-02-24T05:41:35;32.47;;;22.47;;
22665;SDS011;11499;49.486;11.104;2023-02-24T05:44:06;32.80;;;23.50;;
22665;SDS011;11499;49.486;11.104;2023-02-24T05:46:37;29.57;;;21.83;;
22665;SDS011;11499;49.486;11.104;2023-02-24T05:49:06;33.73;;;23.23;;
22665;SDS011;11499;49.486;11.104;2023-02-24T05:51:36;34.63;;;23.40;;
22665;SDS011;11499;49.486;11.104;2023-02-24T05:54:07;33.43;;;22.90;;
22665;SDS011;11499;49.486;11.104;2023-02-24T05:56:35;31.73;;;23.17;;
22665;SDS011;11499;49.486;11.104;2023-02-24T06:01:51;36.87;;;25.07;;
22665;SDS011;11499;49.486;11.104;2023-02-24T06:04:19;35.23;;;24.60;;
22665;SDS011;11499;49.486;11.104;2023-02-24T06:06:47;31.67;;;22.73;;
22665;SDS011;11499;49.486;11.104;2023-02-24T06:09:16;33.73;;;23.33;;
22665;SDS011;11499;49.486;11.104;2023-02-24T06:11:43;32.47;;;23.00;;
22665;SDS011;11499;49.486;11.104;2023-02-24T06:14:10;34.13;;;23.90;;
22665;SDS011;11499;49.486;11.104;2023-02-24T06:16:36;35.00;;;24.47;;
22665;SDS011;11499;49.486;11.104;2023-02-24T06:19:04;32.03;;;23.53;;
22665;SDS011;11499;49.486;11.104;2023-02-24T06:21:32;30.50;;;21.57;;
22665;SDS011;11499;49.486;11.104;2023-02-24T06:23:59;34.97;;;23.30;;
22665;SDS011;11499;49.486;11.104;2023-02-24T06:29:09;34.07;;;23.63;;
22665;SDS011;11499;49.486;11.104;2023-02-24T06:31:36;35.90;;;23.77;;
22665;SDS011;11499;49.486;11.104;2023-02-24T06:34:01;32.83;;;23.63;;
22665;SDS011;11499;49.486;11.104;2023-02-24T06:36:27;33.63;;;23.83;;
22665;SDS011;11499;49.486;11.104;2023-02-24T06:38:52;31.07;;;23.10;;
22665;SDS011;11499;49.486;11.104;2023-02-24T06:41:18;33.90;;;23.50;;
22665;SDS011;11499;49.486;11.104;2023-02-24T06:43:43;33.17;;;23.27;;
22665;SDS011;11499;49.486;11.104;2023-02-24T06:46:10;34.37;;;23.10;;
22665;SDS011;11499;49.486;11.104;2023-02-24T06:48:37;31.93;;;23.67;;
22665;SDS011;11499;49.486;11.104;2023-02-24T06:51:07;33.87;;;24.13;;
22665;SDS011;11499;49.486;11.104;2023-02-24T06:56:05;33.40;;;23.60;;
22665;SDS011;11499;49.486;11.104;2023-02-24T06:58:38;27.63;;;21.13;;
22665;SDS011;11499;49.486;11.104;2023-02-24T07:01:05;30.07;;;22.63;;
22665;SDS011;11499;49.486;11.104;2023-02-24T07:03:35;29.67;;;21.87;;
22665;SDS011;11499;49.486;11.104;2023-02-24T07:06:07;29.70;;;21.63;;
22665;SDS011;11499;49.486;11.104;2023-02-24T07:08:48;29.80;;;21.93;;
22665;SDS011;11499;49.486;11.104;2023-02-24T07:11:14;30.30;;;21.57;;
22665;SDS011;11499;49.486;11.104;2023-02-24T07:13:43;28.53;;;21.67;;
22665;SDS011;11499;49.486;11.104;2023-02-24T07:16:11;30.33;;;20.87;;
22665;SDS011;11499;49.486;11.104;2023-02-24T07:21:32;30.43;;;21.73;;
22665;SDS011;11499;49.486;11.104;2023-02-24T07:24:06;30.27;;;23.00;;
22665;SDS011;11499;49.486;11.104;2023-02-24T07:26:32;29.33;;;21.03;;
22665;SDS011;11499;49.486;11.104;2023-02-24T07:28:58;30.77;;;22.57;;
22665;SDS011;11499;49.486;11.104;2023-02-24T07:31:28;30.43;;;23.17;;
22665;SDS011;11499;49.486;11.104;2023-02-24T07:33:56;28.33;;;22.40;;
22665;SDS011;11499;49.486;11.104;2023-02-24T07:36:22;31.50;;;22.87;;
22665;SDS011;11499;49.486;11.104;2023-02-24T07:38:52;33.83;;;23.73;;
22665;SDS011;11499;49.486;11.104;2023-02-24T07:41:19;32.67;;;23.03;;
22665;SDS011;11499;49.486;11.104;2023-02-24T07:43:46;30.10;;;22.43;;
22665;SDS011;11499;49.486;11.104;2023-02-24T07:49:00;32.03;;;22.60;;
22665;SDS011;11499;49.486;11.104;2023-02-24T07:51:27;26.13;;;21.30;;
22665;SDS011;11499;49.486;11.104;2023-02-24T07:53:54;29.17;;;21.87;;
22665;SDS011;11499;49.486;11.104;2023-02-24T07:56:22;32.37;;;22.40;;
22665;SDS011;11499;49.486;11.104;2023-02-24T07:58:59;32.40;;;22.53;;
22665;SDS011;11499;49.486;11.104;2023-02-24T08:01:28;30.47;;;22.80;;
22665;SDS011;11499;49.486;11.104;2023-02-24T08:03:56;30.00;;;21.93;;
22665;SDS011;11499;49.486;11.104;2023-02-24T08:06:25;29.23;;;22.23;;
22665;SDS011;11499;49.486;11.104;2023-02-24T08:09:09;30.30;;;22.00;;
22665;SDS011;11499;49.486;11.104;2023-02-24T08:11:44;31.03;;;22.13;;
22665;SDS011;11499;49.486;11.104;2023-02-24T08:16:41;31.30;;;22.23;;
22665;SDS011;11499;49.486;11.104;2023-02-24T08:19:08;30.90;;;22.37;;
22665;SDS011;11499;49.486;11.104;2023-02-24T08:21:39;29.03;;;20.87;;
22665;SDS011;11499;49.486;11.104;2023-02-24T08:24:12;28.27;;;20.33;;
22665;SDS011;11499;49.486;11.104;2023-02-24T08:26:42;28.80;;;21.43;;
22665;SDS011;11499;49.486;11.104;2023-02-24T08:29:17;31.13;;;21.47;;
22665;SDS011;11499;49.486;11.104;2023-02-24T08:31:44;31.13;;;22.70;;
22665;SDS011;11499;49.486;11.104;2023-02-24T08:34:10;30.53;;;21.33;;
22665;SDS011;11499;49.486;11.104;2023-02-24T08:36:39;32.77;;;22.40;;
22665;SDS011;11499;49.486;11.104;2023-02-24T08:41:51;28.23;;;21.47;;
22665;SDS011;11499;49.486;11.104;2023-02-24T08:44:18;29.73;;;22.27;;
22665;SDS011;11499;49.486;11.104;2023-02-24T08:46:45;30.17;;;22.03;;
22665;SDS011;11499;49.486;11.104;2023-02-24T08:49:14;27.50;;;20.20;;
22665;SDS011;11499;49.486;11.104;2023-02-24T08:51:42;28.53;;;20.13;;
22665;SDS011;11499;49.486;11.104;2023-02-24T08:54:13;27.10;;;20.23;;
22665;SDS011;11499;49.486;11.104;2023-02-24T08:56:47;31.07;;;21.80;;
22665;SDS011;11499;49.486;11.104;2023-02-24T08:59:16;27.87;;;20.77;;
22665;SDS011;11499;49.486;11.104;2023-02-24T09:02:03;26.60;;;20.37;;
22665;SDS011;11499;49.486;11.104;2023-02-24T09:07:36;28.67;;;20.97;;
22665;SDS011;11499;49.486;11.104;2023-02-24T09:10:06;31.33;;;21.43;;
22665;SDS011;11499;49.486;11.104;2023-02-24T09:12:41;33.47;;;22.07;;
22665;SDS011;11499;49.486;11.104;2023-02-24T09:15:08;28.63;;;20.90;;
22665;SDS011;11499;49.486;11.104;2023-02-24T09:17:35;29.10;;;20.70;;
22665;SDS011;11499;49.486;11.104;2023-02-24T09:20:05;28.17;;;20.93;;
22665;SDS011;11499;49.486;11.104;2023-02-24T09:22:51;27.10;;;19.30;;
22665;SDS011;11499;49.486;11.104;2023-02-24T09:25:22;26.27;;;19.20;;
22665;SDS011;11499;49.486;11.104;2023-02-24T09:33:33;25.20;;;18.53;;
22665;SDS011;11499;49.486;11.104;2023-02-24T09:38:50;24.17;;;17.57;;
22665;SDS011;11499;49.486;11.104;2023-02-24T09:47:13;23.17;;;17.37;;
22665;SDS011;11499;49.486;11.104;2023-02-24T09:50:19;22.90;;;17.10;;
22665;SDS011;11499;49.486;11.104;2023-02-24T09:52:45;20.57;;;15.73;;
22665;SDS011;11499;49.486;11.104;2023-02-24T09:55:34;21.87;;;15.47;;
22665;SDS011;11499;49.486;11.104;2023-02-24T10:00:01;20.90;;;15.93;;
22665;SDS011;11499;49.486;11.104;2023-02-24T10:02:52;21.47;;;16.03;;
22665;SDS011;11499;49.486;11.104;2023-02-24T10:05:27;23.47;;;16.80;;
22665;SDS011;11499;49.486;11.104;2023-02-24T10:08:02;21.03;;;15.93;;
22665;SDS011;11499;49.486;11.104;2023-02-24T10:10:37;23.50;;;17.37;;
22665;SDS011;11499;49.486;11.104;2023-02-24T10:13:07;35.47;;;24.03;;
22665;SDS011;11499;49.486;11.104;2023-02-24T10:15:54;37.03;;;25.20;;
22665;SDS011;11499;49.486;11.104;2023-02-24T10:18:25;27.20;;;18.97;;
22665;SDS011;11499;49.486;11.104;2023-02-24T10:21:43;21.60;;;17.53;;
22665;SDS011;11499;49.486;11.104;2023-02-24T10:27:18;20.45;;;16.63;;
22665;SDS011;11499;49.486;11.104;2023-02-24T10:32:52;22.63;;;18.50;;
22665;SDS011;11499;49.486;11.104;2023-02-24T10:35:23;23.37;;;17.23;;
22665;SDS011;11499;49.486;11.104;2023-02-24T10:37:49;21.60;;;17.17;;
22665;SDS011;11499;49.486;11.104;2023-02-24T10:40:16;19.53;;;15.53;;
22665;SDS011;11499;49.486;11.104;2023-02-24T10:43:04;20.20;;;15.53;;
22665;SDS011;11499;49.486;11.104;2023-02-24T10:45:36;20.13;;;15.67;;
22665;SDS011;11499;49.486;11.104;2023-02-24T10:48:08;18.33;;;13.73;;
22665;SDS011;11499;49.486;11.104;2023-02-24T10:50:48;18.97;;;14.63;;
22665;SDS011;11499;49.486;11.104;2023-02-24T10:53:19;16.20;;;13.43;;
22665;SDS011;11499;49.486;11.104;2023-02-24T10:58:30;17.57;;;14.87;;
22665;SDS011;11499;49.486;11.104;2023-02-24T11:01:16;21.63;;;15.83;;
22665;SDS011;11499;49.486;11.104;2023-02-24T11:04:04;20.87;;;14.27;;
22665;SDS011;11499;49.486;11.104;2023-02-24T11:10:14;19.43;;;14.87;;
22665;SDS011;11499;49.486;11.104;2023-02-24T11:12:49;18.20;;;14.73;;
22665;SDS011;11499;49.486;11.104;2023-02-24T11:15:36;18.47;;;14.03;;
22665;SDS011;11499;49.486;11.104;2023-02-24T11:18:23;18.37;;;13.80;;
22665;SDS011;11499;49.486;11.104;2023-02-24T11:20:52;18.73;;;14.07;;
22665;SDS011;11499;49.486;11.104;2023-02-24T11:25:16;17.03;;;12.87;;
22665;SDS011;11499;49.486;11.104;2023-02-24T11:27:48;18.17;;;12.73;;
22665;SDS011;11499;49.486;11.104;2023-02-24T11:30:18;17.77;;;13.50;;
22665;SDS011;11499;49.486;11.104;2023-02-24T11:40:51;20.07;;;14.63;;
22665;SDS011;11499;49.486;11.104;2023-02-24T11:43:29;18.03;;;13.20;;
22665;SDS011;11499;49.486;11.104;2023-02-24T11:46:20;18.80;;;14.23;;
22665;SDS011;11499;49.486;11.104;2023-02-24T11:51:52;17.53;;;11.70;;
22665;SDS011;11499;49.486;11.104;2023-02-24T11:54:19;14.67;;;10.73;;
22665;SDS011;11499;49.486;11.104;2023-02-24T11:56:48;15.23;;;10.67;;
22665;SDS011;11499;49.486;11.104;2023-02-24T11:59:19;14.93;;;10.77;;
22665;SDS011;11499;49.486;11.104;2023-02-24T12:04:55;11.50;;;9.13;;
22665;SDS011;11499;49.486;11.104;2023-02-24T12:07:35;15.50;;;9.57;;
22665;SDS011;11499;49.486;11.104;2023-02-24T12:18:44;13.73;;;9.77;;
22665;SDS011;11499;49.486;11.104;2023-02-24T12:21:35;15.80;;;10.80;;
22665;SDS011;11499;49.486;11.104;2023-02-24T12:24:08;15.80;;;11.07;;
22665;SDS011;11499;49.486;11.104;2023-02-24T12:29:33;16.87;;;11.20;;
22665;SDS011;11499;49.486;11.104;2023-02-24T12:35:13;13.70;;;9.67;;
22665;SDS011;11499;49.486;11.104;2023-02-24T12:37:52;12.77;;;9.60;;
22665;SDS011;11499;49.486;11.104;2023-02-24T12:43:21;12.53;;;10.20;;
22665;SDS011;11499;49.486;11.104;2023-02-24T12:48:01;13.33;;;9.60;;
22665;SDS011;11499;49.486;11.104;2023-02-24T12:58:24;13.37;;;8.90;;
22665;SDS011;11499;49.486;11.104;2023-02-24T13:00:58;11.10;;;8.87;;
22665;SDS011;11499;49.486;11.104;2023-02-24T13:14:50;11.47;;;8.30;;
22665;SDS011;11499;49.486;11.104;2023-02-24T13:17:17;10.47;;;8.20;;
22665;SDS011;11499;49.486;11.104;2023-02-24T13:19:45;11.93;;;7.87;;
22665;SDS011;11499;49.486;11.104;2023-02-24T13:24:39;15.63;;;9.10;;
22665;SDS011;11499;49.486;11.104;2023-02-24T13:27:20;11.93;;;8.67;;
22665;SDS011;11499;49.486;11.104;2023-02-24T13:32:39;11.03;;;7.83;;
22665;SDS011;11499;49.486;11.104;2023-02-24T13:37:40;12.03;;;8.37;;
22665;SDS011;11499;49.486;11.104;2023-02-24T13:42:27;13.50;;;8.73;;
22665;SDS011;11499;49.486;11.104;2023-02-24T13:47:40;12.20;;;8.67;;
22665;SDS011;11499;49.486;11.104;2023-02-24T13:50:19;12.47;;;8.43;;
22665;SDS011;11499;49.486;11.104;2023-02-24T13:55:30;12.43;;;8.27;;
22665;SDS011;11499;49.486;11.104;2023-02-24T14:03:28;12.90;;;9.07;;
22665;SDS011;11499;49.486;11.104;2023-02-24T14:05:54;11.30;;;8.30;;
22665;SDS011;11499;49.486;11.104;2023-02-24T14:08:42;9.87;;;8.00;;
22665;SDS011;11499;49.486;11.104;2023-02-24T14:11:12;14.50;;;8.70;;
22665;SDS011;11499;49.486;11.104;2023-02-24T14:13:40;13.10;;;8.70;;
22665;SDS011;11499;49.486;11.104;2023-02-24T14:16:13;14.93;;;9.17;;
22665;SDS011;11499;49.486;11.104;2023-02-24T14:18:56;13.30;;;7.47;;
22665;SDS011;11499;49.486;11.104;2023-02-24T14:21:24;11.27;;;7.83;;
22665;SDS011;11499;49.486;11.104;2023-02-24T14:24:10;12.30;;;7.93;;
22665;SDS011;11499;49.486;11.104;2023-02-24T14:26:41;12.80;;;8.77;;
22665;SDS011;11499;49.486;11.104;2023-02-24T14:29:21;14.27;;;9.10;;
22665;SDS011;11499;49.486;11.104;2023-02-24T14:31:51;11.00;;;7.50;;
22665;SDS011;11499;49.486;11.104;2023-02-24T14:35:52;14.00;;;9.17;;
22665;SDS011;11499;49.486;11.104;2023-02-24T14:40:58;15.57;;;9.30;;
22665;SDS011;11499;49.486;11.104;2023-02-24T14:43:25;14.73;;;9.57;;
22665;SDS011;11499;49.486;11.104;2023-02-24T14:45:51;14.40;;;9.60;;
22665;SDS011;11499;49.486;11.104;2023-02-24T14:48:28;14.87;;;9.17;;
22665;SDS011;11499;49.486;11.104;2023-02-24T14:50:55;14.67;;;8.43;;
22665;SDS011;11499;49.486;11.104;2023-02-24T14:53:25;14.03;;;9.20;;
22665;SDS011;11499;49.486;11.104;2023-02-24T14:55:54;12.67;;;9.03;;
22665;SDS011;11499;49.486;11.104;2023-02-24T14:58:26;15.93;;;9.63;;
22665;SDS011;11499;49.486;11.104;2023-02-24T15:00:59;13.70;;;8.63;;
22665;SDS011;11499;49.486;11.104;2023-02-24T15:03:31;12.73;;;9.50;;
22665;SDS011;11499;49.486;11.104;2023-02-24T15:07:53;13.10;;;9.07;;
22665;SDS011;11499;49.486;11.104;2023-02-24T15:10:22;13.70;;;9.47;;
22665;SDS011;11499;49.486;11.104;2023-02-24T15:12:51;13.30;;;9.67;;
22665;SDS011;11499;49.486;11.104;2023-02-24T15:15:24;13.37;;;9.10;;
22665;SDS011;11499;49.486;11.104;2023-02-24T15:17:54;14.20;;;10.00;;
22665;SDS011;11499;49.486;11.104;2023-02-24T15:20:32;12.73;;;9.57;;
22665;SDS011;11499;49.486;11.104;2023-02-24T15:23:00;14.77;;;10.27;;
22665;SDS011;11499;49.486;11.104;2023-02-24T15:25:28;14.93;;;9.30;;
22665;SDS011;11499;49.486;11.104;2023-02-24T15:27:59;12.03;;;8.63;;
22665;SDS011;11499;49.486;11.104;2023-02-24T15:30:30;14.10;;;9.30;;
22665;SDS011;11499;49.486;11.104;2023-02-24T15:34:25;13.97;;;10.20;;
22665;SDS011;11499;49.486;11.104;2023-02-24T15:36:54;15.97;;;9.90;;
22665;SDS011;11499;49.486;11.104;2023-02-24T15:39:22;12.73;;;8.60;;
22665;SDS011;11499;49.486;11.104;2023-02-24T15:41:51;13.90;;;8.27;;
22665;SDS011;11499;49.486;11.104;2023-02-24T15:44:30;12.37;;;8.43;;
22665;SDS011;11499;49.486;11.104;2023-02-24T15:46:58;10.67;;;8.00;;
22665;SDS011;11499;49.486;11.104;2023-02-24T15:49:36;11.73;;;7.90;;
22665;SDS011;11499;49.486;11.104;2023-02-24T15:52:02;12.47;;;8.27;;
22665;SDS011;11499;49.486;11.104;2023-02-24T15:54:30;10.97;;;7.17;;
22665;SDS011;11499;49.486;11.104;2023-02-24T15:56:58;11.00;;;7.07;;
22665;SDS011;11499;49.486;11.104;2023-02-24T15:59:25;13.13;;;8.20;;
22665;SDS011;11499;49.486;11.104;2023-02-24T16:04:46;11.07;;;7.73;;
22665;SDS011;11499;49.486;11.104;2023-02-24T16:07:16;12.57;;;8.50;;
22665;SDS011;11499;49.486;11.104;2023-02-24T16:09:45;11.47;;;7.77;;
22665;SDS011;11499;49.486;11.104;2023-02-24T16:12:20;11.37;;;7.07;;
22665;SDS011;11499;49.486;11.104;2023-02-24T16:14:53;12.30;;;7.63;;
22665;SDS011;11499;49.486;11.104;2023-02-24T16:17:29;12.43;;;8.57;;
22665;SDS011;11499;49.486;11.104;2023-02-24T16:19:57;11.47;;;8.33;;
22665;SDS011;11499;49.486;11.104;2023-02-24T16:22:23;11.07;;;8.10;;
22665;SDS011;11499;49.486;11.104;2023-02-24T16:24:49;13.83;;;8.70;;
22665;SDS011;11499;49.486;11.104;2023-02-24T16:27:18;11.50;;;7.87;;
22665;SDS011;11499;49.486;11.104;2023-02-24T16:32:15;12.33;;;8.63;;
22665;SDS011;11499;49.486;11.104;2023-02-24T16:34:41;12.63;;;8.80;;
22665;SDS011;11499;49.486;11.104;2023-02-24T16:37:14;12.07;;;8.60;;
22665;SDS011;11499;49.486;11.104;2023-02-24T16:39:43;13.67;;;9.37;;
22665;SDS011;11499;49.486;11.104;2023-02-24T16:42:09;11.53;;;8.63;;
22665;SDS011;11499;49.486;11.104;2023-02-24T16:44:35;12.90;;;8.40;;
22665;SDS011;11499;49.486;11.104;2023-02-24T16:47:02;11.83;;;8.23;;
22665;SDS011;11499;49.486;11.104;2023-02-24T16:49:29;11.83;;;8.33;;
22665;SDS011;11499;49.486;11.104;2023-02-24T16:51:55;13.73;;;9.17;;
22665;SDS011;11499;49.486;11.104;2023-02-24T16:54:20;12.77;;;8.80;;
22665;SDS011;11499;49.486;11.104;2023-02-24T16:59:23;13.00;;;9.03;;
22665;SDS011;11499;49.486;11.104;2023-02-24T17:01:53;12.00;;;8.30;;
22665;SDS011;11499;49.486;11.104;2023-02-24T17:04:19;12.87;;;7.53;;
22665;SDS011;11499;49.486;11.104;2023-02-24T17:06:46;13.13;;;8.43;;
22665;SDS011;11499;49.486;11.104;2023-02-24T17:09:12;11.20;;;7.80;;
22665;SDS011;11499;49.486;11.104;2023-02-24T17:11:39;11.50;;;7.90;;
22665;SDS011;11499;49.486;11.104;2023-02-24T17:14:10;13.87;;;8.20;;
22665;SDS011;11499;49.486;11.104;2023-02-24T17:16:40;12.20;;;8.40;;
22665;SDS011;11499;49.486;11.104;2023-02-24T17:19:05;14.87;;;8.70;;
22665;SDS011;11499;49.486;11.104;2023-02-24T17:21:31;10.73;;;7.40;;
22665;SDS011;11499;49.486;11.104;2023-02-24T17:26:30;11.17;;;8.40;;
22665;SDS011;11499;49.486;11.104;2023-02-24T17:28:55;14.37;;;9.27;;
22665;SDS011;11499;49.486;11.104;2023-02-24T17:31:21;13.00;;;8.33;;
22665;SDS011;11499;49.486;11.104;2023-02-24T17:33:47;12.93;;;8.40;;
22665;SDS011;11499;49.486;11.104;2023-02-24T17:36:12;13.97;;;8.40;;
22665;SDS011;11499;49.486;11.104;2023-02-24T17:38:38;13.43;;;8.43;;
22665;SDS011;11499;49.486;11.104;2023-02-24T17:41:04;12.50;;;8.57;;
22665;SDS011;11499;49.486;11.104;2023-02-24T17:43:29;13.10;;;8.57;;
22665;SDS011;11499;49.486;11.104;2023-02-24T17:45:55;11.27;;;8.27;;
22665;SDS011;11499;49.486;11.104;2023-02-24T17:48:20;12.07;;;8.83;;
22665;SDS011;11499;49.486;11.104;2023-02-24T17:53:31;12.73;;;8.80;;
22665;SDS011;11499;49.486;11.104;2023-02-24T17:56:00;10.90;;;8.00;;
22665;SDS011;11499;49.486;11.104;2023-02-24T17:58:26;9.50;;;7.10;;
22665;SDS011;11499;49.486;11.104;2023-02-24T18:00:52;10.57;;;7.57;;
22665;SDS011;11499;49.486;11.104;2023-02-24T18:03:17;11.60;;;8.40;;
22665;SDS011;11499;49.486;11.104;2023-02-24T18:05:42;9.80;;;7.40;;
22665;SDS011;11499;49.486;11.104;2023-02-24T18:08:08;12.03;;;8.30;;